createdAt,value
2022-12-31T00:01:26.522Z,82.59
2022-12-31T00:03:54.039Z,81.95
2022-12-31T00:06:28.959Z,83.21
2022-12-31T00:08:57.199Z,84.06
2022-12-31T00:11:25.267Z,82.41
2022-12-31T00:13:52.131Z,81.75
2022-12-31T00:16:24.788Z,82.44
2022-12-31T00:18:53.873Z,82.23
2022-12-31T00:21:21.031Z,82.74
2022-12-31T00:23:48.141Z,82.32
2022-12-31T00:26:20.425Z,82.51
2022-12-31T00:28:47.968Z,82.17
2022-12-31T00:31:21.145Z,81.95
2022-12-31T00:33:47.907Z,81.99
2022-12-31T00:36:17.105Z,81.68
2022-12-31T00:38:45.623Z,81.67
2022-12-31T00:41:13.457Z,81.96
2022-12-31T00:43:40.709Z,81.68
2022-12-31T00:46:08.313Z,82.04
2022-12-31T00:48:35.554Z,82.72
2022-12-31T00:51:05.337Z,82.10
2022-12-31T00:53:32.004Z,82.47
2022-12-31T00:56:03.429Z,83.33
2022-12-31T00:58:30.471Z,82.95
2022-12-31T01:00:57.609Z,83.91
2022-12-31T01:03:25.042Z,83.50
2022-12-31T01:05:51.453Z,84.33
2022-12-31T01:08:17.988Z,84.14
2022-12-31T01:10:49.832Z,84.50
2022-12-31T01:13:16.187Z,84.45
2022-12-31T01:15:42.623Z,85.66
2022-12-31T01:18:09.753Z,83.84
2022-12-31T01:20:42.007Z,83.07
2022-12-31T01:23:10.278Z,83.40
2022-12-31T01:25:39.256Z,82.58
2022-12-31T01:28:06.496Z,82.26
2022-12-31T01:30:34.374Z,82.34
2022-12-31T01:33:00.983Z,82.33
2022-12-31T01:35:27.488Z,81.35
2022-12-31T01:37:54.044Z,81.22
2022-12-31T01:40:20.409Z,81.43
2022-12-31T01:42:54.729Z,80.33
2022-12-31T01:45:21.700Z,80.69
2022-12-31T01:47:55.129Z,80.62
2022-12-31T01:50:29.747Z,81.66
2022-12-31T01:53:00.886Z,80.29
2022-12-31T01:55:36.279Z,81.22
2022-12-31T01:58:11.094Z,80.11
2022-12-31T02:00:37.749Z,79.81
2022-12-31T02:03:07.432Z,79.73
2022-12-31T02:05:49.801Z,78.58
2022-12-31T02:08:16.457Z,78.58
2022-12-31T02:10:42.872Z,79.21
2022-12-31T02:13:09.676Z,78.86
2022-12-31T02:16:08.675Z,79.22
2022-12-31T02:19:00.308Z,78.24
2022-12-31T02:21:56.203Z,77.96
2022-12-31T02:24:39.715Z,78.63
2022-12-31T02:27:38.189Z,78.93
2022-12-31T02:30:07.172Z,78.83
2022-12-31T02:32:47.537Z,78.90
2022-12-31T02:35:30.945Z,79.31
2022-12-31T02:38:04.880Z,80.16
2022-12-31T02:40:34.461Z,79.65
2022-12-31T02:43:00.962Z,80.22
2022-12-31T02:45:34.326Z,78.73
2022-12-31T02:48:39.679Z,79.29
2022-12-31T02:51:20.476Z,80.14
2022-12-31T02:54:07.373Z,79.43
2022-12-31T02:56:59.279Z,80.45
2022-12-31T02:59:39.676Z,81.88
2022-12-31T03:02:14.523Z,83.01
2022-12-31T03:04:43.985Z,82.69
2022-12-31T03:07:14.612Z,82.99
2022-12-31T03:09:40.946Z,81.90
2022-12-31T03:12:10.070Z,82.50
2022-12-31T03:14:36.373Z,82.23
2022-12-31T03:17:02.680Z,80.35
2022-12-31T03:19:29.147Z,80.24
2022-12-31T03:21:55.572Z,79.27
2022-12-31T03:24:23.337Z,79.93
2022-12-31T03:26:49.977Z,79.45
2022-12-31T03:29:16.370Z,78.72
2022-12-31T03:31:42.873Z,77.80
2022-12-31T03:34:09.271Z,78.20
2022-12-31T03:36:35.814Z,78.20
2022-12-31T03:39:02.160Z,77.22
2022-12-31T03:41:28.580Z,76.92
2022-12-31T03:43:55.116Z,77.00
2022-12-31T03:46:21.479Z,77.29
2022-12-31T03:48:47.985Z,75.75
2022-12-31T03:51:14.424Z,75.34
2022-12-31T03:53:40.923Z,74.58
2022-12-31T03:56:07.410Z,74.85
2022-12-31T03:58:33.714Z,74.96
2022-12-31T04:01:00.232Z,74.84
2022-12-31T04:03:26.704Z,74.73
2022-12-31T04:05:56.554Z,74.20
2022-12-31T04:08:23.658Z,74.19
2022-12-31T04:10:50.509Z,73.96
2022-12-31T04:13:16.829Z,73.72
2022-12-31T04:15:43.368Z,73.60
2022-12-31T04:18:09.797Z,73.10
2022-12-31T04:20:36.217Z,72.67
2022-12-31T04:23:02.763Z,73.68
2022-12-31T04:25:29.405Z,72.75
2022-12-31T04:27:55.844Z,73.28
2022-12-31T04:30:22.263Z,74.32
2022-12-31T04:32:48.618Z,73.36
2022-12-31T04:35:15.069Z,73.08
2022-12-31T04:37:41.797Z,72.67
2022-12-31T04:40:09.025Z,73.64
2022-12-31T04:42:36.581Z,72.57
2022-12-31T04:45:03.997Z,72.86
2022-12-31T04:47:30.502Z,72.49
2022-12-31T04:49:56.900Z,72.78
2022-12-31T04:52:23.649Z,72.10
2022-12-31T04:54:50.100Z,72.30
2022-12-31T04:57:16.700Z,72.97
2022-12-31T04:59:43.081Z,72.93
2022-12-31T05:02:09.842Z,73.17
2022-12-31T05:04:36.413Z,72.80
2022-12-31T05:07:02.765Z,72.69
2022-12-31T05:09:29.422Z,73.64
2022-12-31T05:11:56.159Z,72.30
2022-12-31T05:14:22.599Z,72.82
2022-12-31T05:16:49.163Z,73.18
2022-12-31T05:19:15.600Z,72.87
2022-12-31T05:21:42.003Z,72.91
2022-12-31T05:24:08.645Z,72.89
2022-12-31T05:26:35.437Z,73.13
2022-12-31T05:29:01.778Z,72.86
2022-12-31T05:31:28.232Z,73.38
2022-12-31T05:33:54.738Z,72.76
2022-12-31T05:36:21.137Z,73.28
2022-12-31T05:38:47.457Z,72.93
2022-12-31T05:41:13.884Z,73.11
2022-12-31T05:43:40.268Z,73.22
2022-12-31T05:46:06.853Z,73.44
2022-12-31T05:48:33.352Z,74.21
2022-12-31T05:51:00.022Z,73.94
2022-12-31T05:53:26.465Z,73.65
2022-12-31T05:55:54.067Z,73.50
2022-12-31T05:58:20.386Z,73.39
2022-12-31T06:00:46.836Z,73.15
2022-12-31T06:03:13.380Z,73.00
2022-12-31T06:05:41.992Z,72.75
2022-12-31T06:08:09.166Z,72.72
2022-12-31T06:10:35.559Z,72.90
2022-12-31T06:13:01.940Z,72.13
2022-12-31T06:15:28.414Z,72.11
2022-12-31T06:17:54.930Z,72.34
2022-12-31T06:20:21.539Z,72.84
2022-12-31T06:22:47.977Z,71.99
2022-12-31T06:25:14.407Z,72.43
2022-12-31T06:27:40.849Z,72.63
2022-12-31T06:30:08.059Z,72.12
2022-12-31T06:32:34.447Z,71.93
2022-12-31T06:35:00.755Z,71.67
2022-12-31T06:37:27.142Z,72.38
2022-12-31T06:39:53.630Z,72.09
2022-12-31T06:42:20.080Z,71.66
2022-12-31T06:44:46.494Z,71.30
2022-12-31T06:47:12.933Z,71.49
2022-12-31T06:49:39.298Z,71.41
2022-12-31T06:52:05.807Z,71.52
2022-12-31T06:54:32.535Z,70.82
2022-12-31T06:56:59.347Z,70.63
2022-12-31T06:59:28.302Z,71.22
2022-12-31T07:02:38.785Z,70.58
2022-12-31T07:05:36.278Z,71.05
2022-12-31T07:08:14.683Z,70.54
2022-12-31T07:10:58.692Z,71.15
2022-12-31T07:13:47.454Z,70.27
2022-12-31T07:16:45.647Z,70.94
2022-12-31T07:19:55.487Z,70.48
2022-12-31T07:22:24.222Z,69.90
2022-12-31T07:24:50.992Z,70.59
2022-12-31T07:27:29.135Z,70.99
2022-12-31T07:30:04.564Z,70.66
2022-12-31T07:32:49.655Z,70.60
2022-12-31T07:35:35.318Z,71.63
2022-12-31T07:38:23.566Z,71.36
2022-12-31T07:41:23.864Z,71.99
2022-12-31T07:44:02.035Z,70.85
2022-12-31T07:46:38.462Z,71.19
2022-12-31T07:49:09.978Z,70.65
2022-12-31T07:51:36.513Z,70.43
2022-12-31T07:54:04.064Z,69.72
2022-12-31T07:56:33.065Z,70.61
2022-12-31T07:59:22.456Z,69.83
2022-12-31T08:02:03.044Z,70.25
2022-12-31T08:05:05.874Z,70.16
2022-12-31T08:07:46.694Z,70.01
2022-12-31T08:10:39.607Z,69.91
2022-12-31T08:13:10.846Z,70.58
2022-12-31T08:15:39.341Z,69.96
2022-12-31T08:18:06.997Z,69.96
2022-12-31T08:20:38.447Z,70.07
2022-12-31T08:23:13.599Z,70.24
2022-12-31T08:26:17.801Z,70.97
2022-12-31T08:28:50.690Z,70.32
2022-12-31T08:31:21.194Z,69.83
2022-12-31T08:34:06.412Z,69.65
2022-12-31T08:36:48.350Z,70.36
2022-12-31T08:39:29.666Z,69.12
2022-12-31T08:41:58.351Z,68.67
2022-12-31T08:44:45.815Z,69.06
2022-12-31T08:47:37.017Z,69.21
2022-12-31T08:50:05.627Z,68.58
2022-12-31T08:52:32.263Z,69.06
2022-12-31T08:54:59.002Z,69.43
2022-12-31T08:57:46.001Z,68.26
2022-12-31T09:00:15.719Z,67.87
2022-12-31T09:03:12.936Z,68.15
2022-12-31T09:05:55.002Z,69.07
2022-12-31T09:08:35.455Z,68.03
2022-12-31T09:11:22.835Z,68.27
2022-12-31T09:14:24.948Z,67.59
2022-12-31T09:17:16.772Z,67.66
2022-12-31T09:19:43.503Z,67.36
2022-12-31T09:22:10.922Z,67.92
2022-12-31T09:24:37.745Z,68.38
2022-12-31T09:27:05.956Z,67.66
2022-12-31T09:29:53.521Z,67.47
2022-12-31T09:32:41.763Z,67.59
2022-12-31T09:35:26.890Z,67.35
2022-12-31T09:38:07.900Z,67.15
2022-12-31T09:41:12.315Z,67.02
2022-12-31T09:44:26.797Z,67.34
2022-12-31T09:47:28.152Z,66.87
2022-12-31T09:50:42.848Z,66.32
2022-12-31T09:53:35.418Z,66.78
2022-12-31T09:56:31.495Z,66.72
2022-12-31T09:59:33.209Z,66.88
2022-12-31T10:02:21.090Z,66.63
2022-12-31T10:05:00.072Z,66.80
2022-12-31T10:07:53.804Z,66.40
2022-12-31T10:10:31.510Z,66.39
2022-12-31T10:13:12.273Z,66.93
2022-12-31T10:16:02.147Z,66.03
2022-12-31T10:18:58.280Z,66.20
2022-12-31T10:21:55.717Z,65.41
2022-12-31T10:24:42.757Z,65.83
2022-12-31T10:27:24.350Z,65.66
2022-12-31T10:30:17.336Z,65.48
2022-12-31T10:33:02.557Z,65.08
2022-12-31T10:35:40.989Z,65.24
2022-12-31T10:38:22.434Z,66.17
2022-12-31T10:41:26.449Z,65.59
2022-12-31T10:44:18.253Z,65.55
2022-12-31T10:47:14.577Z,65.56
2022-12-31T10:50:13.500Z,64.87
2022-12-31T10:53:17.433Z,65.55
2022-12-31T10:56:21.381Z,65.20
2022-12-31T10:59:12.861Z,63.74
2022-12-31T11:01:48.975Z,64.06
2022-12-31T11:04:42.792Z,63.97
2022-12-31T11:07:32.516Z,65.43
2022-12-31T11:10:23.695Z,64.64
2022-12-31T11:13:11.939Z,64.56
2022-12-31T11:16:07.193Z,64.51
2022-12-31T11:19:01.440Z,64.18
2022-12-31T11:22:04.417Z,64.86
2022-12-31T11:25:08.673Z,64.30
2022-12-31T11:28:15.182Z,64.76
2022-12-31T11:30:55.995Z,64.81
2022-12-31T11:33:46.808Z,64.29
2022-12-31T11:36:41.781Z,64.41
2022-12-31T11:39:30.540Z,64.83
2022-12-31T11:42:11.811Z,64.79
2022-12-31T11:45:04.224Z,65.33
2022-12-31T11:51:00.981Z,63.90
2022-12-31T11:53:39.646Z,64.55
2022-12-31T11:56:15.754Z,66.21
2022-12-31T11:58:52.171Z,65.21
2022-12-31T12:01:24.648Z,64.25
2022-12-31T12:03:51.268Z,63.63
2022-12-31T12:06:23.732Z,63.86
2022-12-31T12:08:50.401Z,63.63
2022-12-31T12:11:21.720Z,63.39
2022-12-31T12:13:48.753Z,64.59
2022-12-31T12:16:15.858Z,63.62
2022-12-31T12:18:45.761Z,63.61
2022-12-31T12:21:22.096Z,62.95
2022-12-31T12:24:01.784Z,63.29
2022-12-31T12:26:30.095Z,63.18
2022-12-31T12:29:08.230Z,64.21
2022-12-31T12:31:35.066Z,63.98
2022-12-31T12:34:01.689Z,64.29
2022-12-31T12:36:28.124Z,64.11
2022-12-31T12:39:06.113Z,64.08
2022-12-31T12:41:32.863Z,63.87
2022-12-31T12:44:08.132Z,64.19
2022-12-31T12:46:48.063Z,64.99
2022-12-31T12:49:26.911Z,64.86
2022-12-31T12:52:21.751Z,64.49
2022-12-31T12:55:03.506Z,64.35
2022-12-31T12:57:55.562Z,64.02
2022-12-31T13:00:33.472Z,64.12
2022-12-31T13:03:17.158Z,64.32
2022-12-31T13:05:54.157Z,64.12
2022-12-31T13:08:52.469Z,63.83
2022-12-31T13:11:48.180Z,64.00
2022-12-31T13:14:24.008Z,63.84
2022-12-31T13:16:57.729Z,63.62
2022-12-31T13:19:36.407Z,63.97
2022-12-31T13:22:42.193Z,63.87
2022-12-31T13:25:29.996Z,63.20
2022-12-31T13:28:00.297Z,63.01
2022-12-31T13:30:38.676Z,62.41
2022-12-31T13:33:20.967Z,63.38
2022-12-31T13:35:54.162Z,63.33
2022-12-31T13:38:28.782Z,61.36
2022-12-31T13:40:57.849Z,61.28
2022-12-31T13:43:50.805Z,61.98
2022-12-31T13:46:40.906Z,62.24
2022-12-31T13:49:37.774Z,62.35
2022-12-31T13:52:21.531Z,62.44
2022-12-31T13:55:26.002Z,62.66
2022-12-31T13:57:53.991Z,62.44
2022-12-31T14:00:24.193Z,62.28
2022-12-31T14:03:24.930Z,62.25
2022-12-31T14:06:11.604Z,62.23
2022-12-31T14:08:37.973Z,61.62
2022-12-31T14:11:19.663Z,61.77
2022-12-31T14:13:58.241Z,61.12
2022-12-31T14:16:49.285Z,60.92
2022-12-31T14:19:39.379Z,60.52
2022-12-31T14:22:36.491Z,61.07
2022-12-31T14:25:09.200Z,61.73
2022-12-31T14:27:40.480Z,61.50
2022-12-31T14:30:16.167Z,61.89
2022-12-31T14:33:00.852Z,61.69
2022-12-31T14:35:56.617Z,61.96
2022-12-31T14:38:44.233Z,62.19
2022-12-31T14:41:31.179Z,62.21
2022-12-31T14:44:35.113Z,61.80
2022-12-31T14:47:20.813Z,62.13
2022-12-31T14:49:56.991Z,62.01
2022-12-31T14:52:31.427Z,61.83
2022-12-31T14:55:21.074Z,62.09
2022-12-31T14:58:25.709Z,62.82
2022-12-31T15:00:37.794Z,62.00
2022-12-31T15:03:17.635Z,62.09
2022-12-31T15:05:51.652Z,62.03
2022-12-31T15:08:33.969Z,61.67
2022-12-31T15:11:38.685Z,62.37
2022-12-31T15:14:56.780Z,62.12
2022-12-31T15:17:23.105Z,61.76
2022-12-31T15:20:16.883Z,61.82
2022-12-31T15:22:50.053Z,62.00
2022-12-31T15:25:41.376Z,61.56
2022-12-31T15:28:23.557Z,63.15
2022-12-31T15:30:51.738Z,62.07
2022-12-31T15:33:34.179Z,62.21
2022-12-31T15:36:13.577Z,62.18
2022-12-31T15:38:41.751Z,62.20
2022-12-31T15:41:20.579Z,61.61
2022-12-31T15:43:51.549Z,62.24
2022-12-31T15:46:23.384Z,61.91
2022-12-31T15:48:57.798Z,61.93
2022-12-31T15:51:33.826Z,62.06
2022-12-31T15:54:03.069Z,62.26
2022-12-31T15:56:44.515Z,61.48
2022-12-31T15:59:14.267Z,61.44
2022-12-31T16:01:43.439Z,61.99
2022-12-31T16:04:25.454Z,61.88
2022-12-31T16:06:52.602Z,61.89
2022-12-31T16:09:25.366Z,61.12
2022-12-31T16:11:53.765Z,62.02
2022-12-31T16:14:26.147Z,61.65
2022-12-31T16:17:00.253Z,61.40
2022-12-31T16:19:43.103Z,60.97
2022-12-31T16:22:18.999Z,61.54
2022-12-31T16:25:19.483Z,61.34
2022-12-31T16:27:34.719Z,61.47
2022-12-31T16:30:07.911Z,61.43
2022-12-31T16:32:37.127Z,61.62
2022-12-31T16:35:07.066Z,61.10
2022-12-31T16:37:38.460Z,61.15
2022-12-31T16:40:17.827Z,61.54
2022-12-31T16:42:46.532Z,60.72
2022-12-31T16:45:34.407Z,61.52
2022-12-31T16:48:16.377Z,60.39
2022-12-31T16:50:50.674Z,61.02
2022-12-31T16:53:20.911Z,60.34
2022-12-31T16:55:57.044Z,61.15
2022-12-31T16:58:33.212Z,60.43
2022-12-31T17:01:16.198Z,60.99
2022-12-31T17:03:47.687Z,60.47
2022-12-31T17:06:19.157Z,59.75
2022-12-31T17:08:54.452Z,59.66
2022-12-31T17:11:35.643Z,59.33
2022-12-31T17:14:08.168Z,58.68
2022-12-31T17:16:37.888Z,58.59
2022-12-31T17:19:04.776Z,59.47
2022-12-31T17:21:32.474Z,58.20
2022-12-31T17:24:05.336Z,59.05
2022-12-31T17:26:37.721Z,58.35
2022-12-31T17:29:04.353Z,58.43
2022-12-31T17:31:41.275Z,58.60
2022-12-31T17:34:13.805Z,58.16
2022-12-31T17:36:51.327Z,58.11
2022-12-31T17:39:20.289Z,58.27
2022-12-31T17:41:50.836Z,57.71
2022-12-31T17:44:21.555Z,57.17
2022-12-31T17:46:49.771Z,57.86
2022-12-31T17:49:16.473Z,56.79
2022-12-31T17:51:47.551Z,57.43
2022-12-31T17:54:17.131Z,57.06
2022-12-31T17:56:44.677Z,57.43
2022-12-31T17:59:26.582Z,57.04
2022-12-31T18:01:53.064Z,56.99
2022-12-31T18:04:19.748Z,56.62
2022-12-31T18:06:46.490Z,56.69
2022-12-31T18:09:12.931Z,57.12
2022-12-31T18:11:40.502Z,56.55
2022-12-31T18:14:07.176Z,56.81
2022-12-31T18:16:34.153Z,56.31
2022-12-31T18:19:01.445Z,56.69
2022-12-31T18:21:35.076Z,56.11
2022-12-31T18:26:28.807Z,55.62
2022-12-31T18:29:10.702Z,56.24
2022-12-31T18:31:37.449Z,56.19
2022-12-31T18:34:03.880Z,56.44
2022-12-31T18:36:30.515Z,56.07
2022-12-31T18:38:56.853Z,55.44
2022-12-31T18:41:26.803Z,55.66
2022-12-31T18:43:54.014Z,55.37
2022-12-31T18:46:23.424Z,55.55
2022-12-31T18:48:50.207Z,55.63
2022-12-31T18:51:19.462Z,55.23
2022-12-31T18:53:45.893Z,55.39
2022-12-31T18:56:14.868Z,54.92
2022-12-31T18:58:41.463Z,54.70
2022-12-31T19:01:25.126Z,55.14
2022-12-31T19:03:51.730Z,54.65
2022-12-31T19:06:18.065Z,55.07
2022-12-31T19:08:44.499Z,55.21
2022-12-31T19:11:14.586Z,53.94
2022-12-31T19:13:41.441Z,54.37
2022-12-31T19:16:09.733Z,54.38
2022-12-31T19:18:36.301Z,54.48
2022-12-31T19:21:04.514Z,54.13
2022-12-31T19:23:30.979Z,54.14
2022-12-31T19:25:57.423Z,54.13
2022-12-31T19:28:25.972Z,54.21
2022-12-31T19:30:53.110Z,54.08
2022-12-31T19:33:19.685Z,53.94
2022-12-31T19:35:46.236Z,53.79
2022-12-31T19:38:21.010Z,53.69
2022-12-31T19:40:48.626Z,53.41
2022-12-31T19:43:17.495Z,54.51
2022-12-31T19:45:44.665Z,53.25
2022-12-31T19:48:12.632Z,53.53
2022-12-31T19:50:42.868Z,52.70
2022-12-31T19:53:12.875Z,52.57
2022-12-31T19:55:39.821Z,52.75
2022-12-31T19:58:06.714Z,52.79
2022-12-31T20:00:33.119Z,52.44
2022-12-31T20:02:59.777Z,52.81
2022-12-31T20:05:26.296Z,52.20
2022-12-31T20:07:52.797Z,51.83
2022-12-31T20:10:19.345Z,52.06
2022-12-31T20:12:46.133Z,52.15
2022-12-31T20:15:12.626Z,51.90
2022-12-31T20:17:39.363Z,51.45
2022-12-31T20:20:06.311Z,51.63
2022-12-31T20:22:32.852Z,51.20
2022-12-31T20:24:59.225Z,51.21
2022-12-31T20:27:25.713Z,51.10
2022-12-31T20:29:52.467Z,51.42
2022-12-31T20:32:19.135Z,52.39
2022-12-31T20:34:45.570Z,50.69
2022-12-31T20:37:11.949Z,50.73
2022-12-31T20:39:38.567Z,49.73
2022-12-31T20:42:05.176Z,50.35
2022-12-31T20:44:31.584Z,49.24
2022-12-31T20:46:58.466Z,48.83
2022-12-31T20:49:44.878Z,49.68
2022-12-31T20:52:11.207Z,48.65
2022-12-31T20:54:38.978Z,48.36
2022-12-31T20:57:05.283Z,49.08
2022-12-31T20:59:31.766Z,49.06
2022-12-31T21:04:44.566Z,47.71
2022-12-31T21:07:10.951Z,47.99
2022-12-31T21:09:37.371Z,47.57
2022-12-31T21:12:03.853Z,47.72
2022-12-31T21:14:30.335Z,47.49
2022-12-31T21:16:57.000Z,47.26
2022-12-31T21:19:23.306Z,47.11
2022-12-31T21:21:50.053Z,47.33
2022-12-31T21:24:23.329Z,46.92
2022-12-31T21:26:50.392Z,47.61
2022-12-31T21:29:16.915Z,46.99
2022-12-31T21:31:43.240Z,47.34
2022-12-31T21:34:09.818Z,46.83
2022-12-31T21:36:36.257Z,47.28
2022-12-31T21:39:02.758Z,46.75
2022-12-31T21:41:33.307Z,47.31
2022-12-31T21:44:00.873Z,46.67
2022-12-31T21:46:27.367Z,46.51
2022-12-31T21:48:55.241Z,46.63
2022-12-31T21:51:22.085Z,46.30
2022-12-31T21:53:49.645Z,45.67
2022-12-31T21:56:16.179Z,45.74
2022-12-31T21:58:44.865Z,46.30
2022-12-31T22:01:19.644Z,46.24
2022-12-31T22:03:46.564Z,45.73
2022-12-31T22:06:22.341Z,45.65
2022-12-31T22:08:51.284Z,45.85
2022-12-31T22:11:19.410Z,44.91
2022-12-31T22:13:46.559Z,44.88
2022-12-31T22:16:13.149Z,45.40
2022-12-31T22:18:41.731Z,45.64
2022-12-31T22:21:20.038Z,45.36
2022-12-31T22:23:49.499Z,45.49
2022-12-31T22:26:17.703Z,46.04
2022-12-31T22:28:46.157Z,45.77
2022-12-31T22:31:14.884Z,46.28
2022-12-31T22:33:42.500Z,46.85
2022-12-31T22:36:12.983Z,46.78
2022-12-31T22:38:39.639Z,46.48
2022-12-31T22:41:11.686Z,46.54
2022-12-31T22:43:41.544Z,46.52
2022-12-31T22:46:13.689Z,47.15
2022-12-31T22:48:41.277Z,46.74
2022-12-31T22:51:08.792Z,47.28
2022-12-31T22:53:36.243Z,46.71
2022-12-31T22:56:02.585Z,46.33
2022-12-31T22:58:29.009Z,47.02
2022-12-31T23:00:55.506Z,46.03
2022-12-31T23:03:22.080Z,46.28
2022-12-31T23:05:52.523Z,46.37
2022-12-31T23:08:23.112Z,46.19
2022-12-31T23:10:53.003Z,46.30
2022-12-31T23:13:19.382Z,46.04
2022-12-31T23:15:45.839Z,46.05
2022-12-31T23:18:12.314Z,46.18
2022-12-31T23:20:38.893Z,46.26
2022-12-31T23:23:06.508Z,46.69
2022-12-31T23:25:35.243Z,46.21
2022-12-31T23:28:02.193Z,46.42
2022-12-31T23:30:29.377Z,46.43
2022-12-31T23:32:56.016Z,45.94
2022-12-31T23:35:22.715Z,46.59
2022-12-31T23:37:49.258Z,47.04
2022-12-31T23:40:21.530Z,46.68
2022-12-31T23:42:49.839Z,46.30
2022-12-31T23:45:16.758Z,46.89
2022-12-31T23:47:43.148Z,46.81
2022-12-31T23:50:09.572Z,45.80
2022-12-31T23:52:36.132Z,47.08
2022-12-31T23:55:02.569Z,46.48
2022-12-31T23:57:28.962Z,46.52
2022-12-31T23:59:55.347Z,46.42
